createdAt,value
2023-02-12T00:01:25.582Z,6.00
2023-02-12T00:03:52.460Z,5.98
2023-02-12T00:06:19.143Z,5.90
2023-02-12T00:08:51.680Z,6.00
2023-02-12T00:11:23.997Z,6.00
2023-02-12T00:13:51.631Z,6.00
2023-02-12T00:16:22.750Z,5.90
2023-02-12T00:18:53.036Z,5.90
2023-02-12T00:21:20.428Z,6.00
2023-02-12T00:23:47.077Z,6.00
2023-02-12T00:26:18.284Z,6.10
2023-02-12T00:28:46.864Z,6.10
2023-02-12T00:31:22.172Z,6.00
2023-02-12T00:33:49.061Z,6.00
2023-02-12T00:36:20.521Z,5.96
2023-02-12T00:38:49.524Z,5.94
2023-02-12T00:41:16.223Z,6.00
2023-02-12T00:43:43.011Z,6.10
2023-02-12T00:46:09.882Z,6.00
2023-02-12T00:48:37.060Z,6.00
2023-02-12T00:51:04.617Z,5.92
2023-02-12T00:53:32.684Z,5.90
2023-02-12T00:55:59.628Z,6.00
2023-02-12T00:58:26.685Z,5.90
2023-02-12T01:00:54.486Z,5.90
2023-02-12T01:03:23.832Z,5.90
2023-02-12T01:05:53.985Z,5.90
2023-02-12T01:08:21.905Z,5.92
2023-02-12T01:11:03.024Z,5.90
2023-02-12T01:13:33.527Z,5.90
2023-02-12T01:16:18.617Z,6.00
2023-02-12T01:18:47.065Z,6.10
2023-02-12T01:21:20.413Z,6.20
2023-02-12T01:23:49.234Z,6.20
2023-02-12T01:26:17.857Z,6.10
2023-02-12T01:28:53.403Z,6.00
2023-02-12T01:31:24.357Z,5.92
2023-02-12T01:33:55.135Z,5.90
2023-02-12T01:36:23.076Z,5.90
2023-02-12T01:38:50.644Z,5.90
2023-02-12T01:41:25.001Z,5.90
2023-02-12T01:44:23.939Z,5.90
2023-02-12T01:46:57.124Z,5.98
2023-02-12T01:49:34.560Z,6.00
2023-02-12T01:52:13.680Z,5.90
2023-02-12T01:54:41.489Z,5.84
2023-02-12T01:57:10.287Z,5.80
2023-02-12T01:59:39.234Z,5.74
2023-02-12T02:02:06.109Z,5.80
2023-02-12T02:04:40.801Z,5.80
2023-02-12T02:07:10.825Z,5.82
2023-02-12T02:09:39.832Z,5.80
2023-02-12T02:12:26.607Z,5.84
2023-02-12T02:15:00.169Z,5.90
2023-02-12T02:17:56.363Z,6.00
2023-02-12T02:20:48.359Z,6.00
2023-02-12T02:23:30.088Z,5.90
2023-02-12T02:26:40.275Z,5.90
2023-02-12T02:29:44.153Z,6.00
2023-02-12T02:32:27.445Z,5.90
2023-02-12T02:35:14.144Z,5.82
2023-02-12T02:37:59.725Z,5.90
2023-02-12T02:40:36.665Z,6.00
2023-02-12T02:43:16.569Z,6.00
2023-02-12T02:45:49.324Z,6.00
2023-02-12T02:48:26.424Z,6.02
2023-02-12T02:51:00.992Z,6.00
2023-02-12T02:53:52.700Z,6.00
2023-02-12T02:56:23.204Z,6.06
2023-02-12T02:59:02.301Z,6.00
2023-02-12T03:01:44.054Z,6.00
2023-02-12T03:04:35.357Z,6.08
2023-02-12T03:07:23.118Z,6.06
2023-02-12T03:09:58.465Z,6.06
2023-02-12T03:12:37.821Z,6.08
2023-02-12T03:15:15.296Z,6.00
2023-02-12T03:17:46.759Z,6.00
2023-02-12T03:20:41.822Z,6.00
2023-02-12T03:23:18.483Z,6.00
2023-02-12T03:25:58.724Z,6.00
2023-02-12T03:28:37.777Z,6.00
2023-02-12T03:31:39.396Z,6.00
2023-02-12T03:34:24.586Z,6.02
2023-02-12T03:37:08.909Z,6.04
2023-02-12T03:39:55.616Z,6.10
2023-02-12T03:42:34.521Z,6.10
2023-02-12T03:45:14.688Z,6.08
2023-02-12T03:47:53.289Z,6.06
2023-02-12T03:50:35.362Z,6.06
2023-02-12T03:53:02.049Z,6.06
2023-02-12T03:55:31.037Z,6.10
2023-02-12T03:58:01.639Z,6.10
2023-02-12T04:00:28.449Z,6.10
2023-02-12T04:02:55.746Z,6.10
2023-02-12T04:05:27.680Z,6.10
2023-02-12T04:07:57.386Z,6.10
2023-02-12T04:10:41.700Z,6.10
2023-02-12T04:13:33.560Z,6.10
2023-02-12T04:17:00.957Z,6.10
2023-02-12T04:19:55.538Z,6.20
2023-02-12T04:23:18.217Z,6.20
2023-02-12T04:26:35.546Z,6.20
2023-02-12T04:29:35.266Z,6.20
2023-02-12T04:32:29.041Z,6.20
2023-02-12T04:35:15.766Z,6.20
2023-02-12T04:38:12.993Z,6.20
2023-02-12T04:40:43.952Z,6.20
2023-02-12T04:43:11.132Z,6.02
2023-02-12T04:45:38.261Z,6.00
2023-02-12T04:48:05.939Z,6.00
2023-02-12T04:50:50.522Z,6.06
2023-02-12T04:53:17.413Z,6.06
2023-02-12T04:55:44.494Z,6.00
2023-02-12T04:58:11.510Z,6.10
2023-02-12T05:00:38.320Z,6.10
2023-02-12T05:03:05.425Z,6.10
2023-02-12T05:05:32.758Z,6.10
2023-02-12T05:07:59.353Z,6.10
2023-02-12T05:10:26.156Z,6.10
2023-02-12T05:12:54.326Z,6.10
2023-02-12T05:15:21.800Z,6.02
2023-02-12T05:17:48.487Z,6.00
2023-02-12T05:20:15.202Z,5.96
2023-02-12T05:22:41.968Z,5.92
2023-02-12T05:25:08.667Z,5.98
2023-02-12T05:27:35.477Z,6.00
2023-02-12T05:30:02.800Z,6.00
2023-02-12T05:32:29.435Z,5.98
2023-02-12T05:34:56.111Z,6.00
2023-02-12T05:37:22.920Z,6.00
2023-02-12T05:39:50.517Z,6.00
2023-02-12T05:42:17.122Z,6.00
2023-02-12T05:44:43.868Z,6.00
2023-02-12T05:47:11.011Z,6.00
2023-02-12T05:49:37.607Z,5.98
2023-02-12T05:52:04.489Z,5.94
2023-02-12T05:54:31.177Z,5.96
2023-02-12T05:56:57.808Z,6.00
2023-02-12T05:59:24.402Z,6.00
2023-02-12T06:01:52.357Z,5.90
2023-02-12T06:04:26.258Z,5.80
2023-02-12T06:06:55.830Z,5.60
2023-02-12T06:09:23.181Z,5.50
2023-02-12T06:11:49.861Z,5.46
2023-02-12T06:14:19.537Z,5.40
2023-02-12T06:16:49.063Z,5.30
2023-02-12T06:19:16.604Z,5.20
2023-02-12T06:21:43.593Z,5.20
2023-02-12T06:24:13.904Z,5.14
2023-02-12T06:26:40.712Z,5.20
2023-02-12T06:29:07.497Z,5.18
2023-02-12T06:31:36.723Z,5.20
2023-02-12T06:34:07.713Z,5.30
2023-02-12T06:36:38.564Z,5.30
2023-02-12T06:39:06.188Z,5.30
2023-02-12T06:41:33.398Z,5.30
2023-02-12T06:44:00.100Z,5.40
2023-02-12T06:46:26.856Z,5.48
2023-02-12T06:48:58.954Z,5.50
2023-02-12T06:51:27.244Z,5.60
2023-02-12T06:53:55.146Z,5.60
2023-02-12T06:56:23.662Z,5.60
2023-02-12T06:59:01.257Z,5.50
2023-02-12T07:01:29.890Z,5.32
2023-02-12T07:04:02.714Z,5.30
2023-02-12T07:06:34.383Z,5.20
2023-02-12T07:09:02.224Z,5.10
2023-02-12T07:11:36.090Z,5.20
2023-02-12T07:14:04.530Z,5.20
2023-02-12T07:16:31.270Z,5.30
2023-02-12T07:18:58.046Z,5.30
2023-02-12T07:21:24.754Z,5.40
2023-02-12T07:23:53.105Z,5.50
2023-02-12T07:26:21.999Z,5.60
2023-02-12T07:28:50.183Z,5.70
2023-02-12T07:31:21.293Z,5.70
2023-02-12T07:33:49.467Z,5.78
2023-02-12T07:36:19.176Z,5.80
2023-02-12T07:38:46.273Z,5.86
2023-02-12T07:41:23.134Z,5.90
2023-02-12T07:43:56.092Z,5.90
2023-02-12T07:46:29.930Z,6.00
2023-02-12T07:48:59.368Z,6.00
2023-02-12T07:51:27.724Z,6.04
2023-02-12T07:53:55.089Z,6.10
2023-02-12T07:56:25.374Z,6.10
2023-02-12T07:58:53.782Z,6.20
2023-02-12T08:01:24.302Z,6.30
2023-02-12T08:03:51.919Z,6.30
2023-02-12T08:06:23.277Z,6.30
2023-02-12T08:08:55.870Z,6.36
2023-02-12T08:11:24.168Z,6.40
2023-02-12T08:13:51.587Z,6.40
2023-02-12T08:16:23.999Z,6.50
2023-02-12T08:18:52.320Z,6.50
2023-02-12T08:21:25.605Z,6.52
2023-02-12T08:23:54.666Z,6.58
2023-02-12T08:26:28.956Z,6.60
2023-02-12T08:29:02.386Z,6.60
2023-02-12T08:31:34.065Z,6.50
2023-02-12T08:34:01.483Z,6.40
2023-02-12T08:36:35.320Z,6.50
2023-02-12T08:39:02.146Z,6.48
2023-02-12T08:41:29.921Z,6.52
2023-02-12T08:44:00.001Z,6.60
2023-02-12T08:46:30.023Z,6.70
2023-02-12T08:49:02.939Z,6.80
2023-02-12T08:51:34.275Z,6.80
2023-02-12T08:54:05.238Z,6.90
2023-02-12T08:56:34.291Z,6.98
2023-02-12T08:59:04.221Z,7.00
2023-02-12T09:01:33.790Z,7.10
2023-02-12T09:04:01.426Z,7.10
2023-02-12T09:06:28.571Z,7.20
2023-02-12T09:08:55.646Z,7.20
2023-02-12T09:11:30.524Z,7.30
2023-02-12T09:14:10.780Z,7.30
2023-02-12T09:16:40.501Z,7.40
2023-02-12T09:19:09.300Z,7.42
2023-02-12T09:21:35.864Z,7.30
2023-02-12T09:24:03.710Z,7.10
2023-02-12T09:26:30.742Z,6.90
2023-02-12T09:28:58.586Z,6.90
2023-02-12T09:31:29.537Z,6.90
2023-02-12T09:34:03.314Z,6.90
2023-02-12T09:36:31.175Z,6.90
2023-02-12T09:38:59.522Z,6.90
2023-02-12T09:42:08.620Z,7.00
2023-02-12T09:44:55.002Z,7.10
2023-02-12T09:48:01.567Z,7.10
2023-02-12T09:50:46.352Z,7.20
2023-02-12T09:53:17.347Z,7.30
2023-02-12T09:55:44.004Z,7.40
2023-02-12T09:58:28.861Z,7.50
2023-02-12T10:00:55.494Z,7.50
2023-02-12T10:03:22.361Z,7.60
2023-02-12T10:05:52.256Z,7.70
2023-02-12T10:08:37.478Z,7.90
2023-02-12T10:11:28.388Z,8.10
2023-02-12T10:14:11.771Z,8.22
2023-02-12T10:17:06.964Z,8.24
2023-02-12T10:20:19.818Z,8.30
2023-02-12T10:23:31.946Z,8.46
2023-02-12T10:26:04.200Z,8.70
2023-02-12T10:28:49.840Z,8.72
2023-02-12T10:31:41.848Z,8.80
2023-02-12T10:34:34.710Z,8.80
2023-02-12T10:37:14.537Z,9.02
2023-02-12T10:39:51.339Z,9.30
2023-02-12T10:42:43.914Z,9.50
2023-02-12T10:45:20.718Z,9.68
2023-02-12T10:47:53.573Z,10.16
2023-02-12T10:50:33.766Z,11.10
2023-02-12T10:53:03.624Z,12.38
2023-02-12T10:55:33.289Z,13.56
2023-02-12T10:58:03.283Z,13.90
2023-02-12T11:00:38.104Z,13.50
2023-02-12T11:03:13.819Z,13.16
2023-02-12T11:05:43.613Z,12.90
2023-02-12T11:08:34.778Z,12.74
2023-02-12T11:11:02.477Z,12.40
2023-02-12T11:13:30.231Z,12.56
2023-02-12T11:15:56.825Z,12.46
2023-02-12T11:18:27.520Z,12.30
2023-02-12T11:21:02.397Z,12.08
2023-02-12T11:23:37.856Z,11.72
2023-02-12T11:26:19.686Z,11.40
2023-02-12T11:29:04.279Z,11.00
2023-02-12T11:31:35.465Z,10.90
2023-02-12T11:34:20.257Z,10.90
2023-02-12T11:36:50.808Z,10.90
2023-02-12T11:39:34.118Z,10.70
2023-02-12T11:42:05.786Z,10.50
2023-02-12T11:44:37.987Z,10.50
2023-02-12T11:47:12.099Z,10.40
2023-02-12T11:49:49.146Z,10.40
2023-02-12T11:52:27.494Z,10.30
2023-02-12T11:55:02.831Z,10.30
2023-02-12T11:58:04.964Z,10.28
2023-02-12T12:00:49.890Z,10.10
2023-02-12T12:03:44.032Z,10.00
2023-02-12T12:06:19.779Z,9.90
2023-02-12T12:09:16.107Z,9.88
2023-02-12T12:12:19.822Z,9.88
2023-02-12T12:15:11.692Z,9.70
2023-02-12T12:18:08.324Z,9.80
2023-02-12T12:20:49.149Z,9.80
2023-02-12T12:23:19.382Z,9.90
2023-02-12T12:25:54.873Z,9.90
2023-02-12T12:28:44.830Z,9.90
2023-02-12T12:31:31.347Z,9.80
2023-02-12T12:34:22.794Z,9.84
2023-02-12T12:37:26.436Z,9.90
2023-02-12T12:40:33.768Z,10.00
2023-02-12T12:43:44.093Z,10.10
2023-02-12T12:46:41.441Z,10.20
2023-02-12T12:49:33.755Z,10.10
2023-02-12T12:52:37.508Z,10.16
2023-02-12T12:55:52.867Z,10.16
2023-02-12T12:58:41.540Z,10.20
2023-02-12T13:01:55.920Z,10.30
2023-02-12T13:04:46.868Z,10.40
2023-02-12T13:07:45.000Z,10.44
2023-02-12T13:10:45.708Z,10.60
2023-02-12T13:13:26.630Z,10.70
2023-02-12T13:15:56.453Z,10.80
2023-02-12T13:18:49.978Z,10.70
2023-02-12T13:21:35.266Z,10.70
2023-02-12T13:24:40.155Z,10.70
2023-02-12T13:27:16.070Z,10.70
2023-02-12T13:29:55.078Z,10.80
2023-02-12T13:32:30.686Z,10.70
2023-02-12T13:34:59.384Z,10.60
2023-02-12T13:37:40.307Z,10.58
2023-02-12T13:40:18.419Z,10.50
2023-02-12T13:42:56.549Z,10.40
2023-02-12T13:45:59.548Z,10.40
2023-02-12T13:48:54.338Z,10.30
2023-02-12T13:51:57.232Z,10.30
2023-02-12T13:54:54.276Z,10.40
2023-02-12T13:57:21.842Z,10.30
2023-02-12T13:59:59.437Z,10.40
2023-02-12T14:02:42.748Z,10.40
2023-02-12T14:05:27.870Z,10.30
2023-02-12T14:08:05.698Z,10.20
2023-02-12T14:10:38.366Z,10.20
2023-02-12T14:13:17.512Z,10.20
2023-02-12T14:15:55.381Z,10.18
2023-02-12T14:18:39.084Z,10.10
2023-02-12T14:21:11.754Z,10.00
2023-02-12T14:23:42.251Z,9.88
2023-02-12T14:26:23.186Z,9.70
2023-02-12T14:29:06.954Z,9.60
2023-02-12T14:31:37.173Z,9.50
2023-02-12T14:34:07.512Z,9.50
2023-02-12T14:36:38.900Z,9.50
2023-02-12T14:39:29.716Z,9.50
2023-02-12T14:42:16.304Z,9.50
2023-02-12T14:44:59.734Z,9.46
2023-02-12T14:47:29.286Z,9.40
2023-02-12T14:50:02.140Z,9.32
2023-02-12T14:52:38.853Z,9.30
2023-02-12T14:55:20.459Z,9.20
2023-02-12T14:57:48.751Z,9.10
2023-02-12T15:00:18.620Z,9.08
2023-02-12T15:02:53.325Z,9.00
2023-02-12T15:05:32.636Z,9.00
2023-02-12T15:08:12.939Z,8.90
2023-02-12T15:11:33.555Z,8.80
2023-02-12T15:14:12.993Z,8.80
2023-02-12T15:16:54.783Z,8.80
2023-02-12T15:20:07.001Z,8.70
2023-02-12T15:22:40.144Z,8.60
2023-02-12T15:25:35.771Z,8.60
2023-02-12T15:28:33.356Z,8.60
2023-02-12T15:31:02.784Z,8.54
2023-02-12T15:33:36.243Z,8.50
2023-02-12T15:36:05.014Z,8.50
2023-02-12T15:38:41.576Z,8.40
2023-02-12T15:41:22.966Z,8.40
2023-02-12T15:43:49.704Z,8.30
2023-02-12T15:46:18.264Z,8.20
2023-02-12T15:48:45.624Z,8.20
2023-02-12T15:51:44.657Z,8.20
2023-02-12T15:54:18.150Z,8.20
2023-02-12T15:56:45.079Z,8.10
2023-02-12T15:59:29.256Z,8.10
2023-02-12T16:02:03.642Z,8.00
2023-02-12T16:04:41.958Z,7.90
2023-02-12T16:07:11.173Z,7.80
2023-02-12T16:09:38.638Z,7.80
2023-02-12T16:12:13.671Z,7.70
2023-02-12T16:14:49.289Z,7.60
2023-02-12T16:17:34.142Z,7.60
2023-02-12T16:20:15.508Z,7.50
2023-02-12T16:22:44.882Z,7.50
2023-02-12T16:25:33.636Z,7.50
2023-02-12T16:28:04.308Z,7.44
2023-02-12T16:30:34.837Z,7.40
2023-02-12T16:33:02.736Z,7.40
2023-02-12T16:35:35.559Z,7.30
2023-02-12T16:38:30.910Z,7.30
2023-02-12T16:41:31.941Z,7.20
2023-02-12T16:44:01.325Z,7.20
2023-02-12T16:46:32.160Z,7.20
2023-02-12T16:49:01.601Z,7.20
2023-02-12T16:51:32.207Z,7.10
2023-02-12T16:54:01.986Z,7.10
2023-02-12T16:56:34.376Z,7.10
2023-02-12T16:59:02.066Z,7.00
2023-02-12T17:01:34.826Z,7.00
2023-02-12T17:04:09.266Z,6.90
2023-02-12T17:06:35.960Z,6.84
2023-02-12T17:09:02.612Z,6.80
2023-02-12T17:11:29.852Z,6.74
2023-02-12T17:13:57.187Z,6.70
2023-02-12T17:16:32.241Z,6.70
2023-02-12T17:19:00.537Z,6.70
2023-02-12T17:21:43.460Z,6.70
2023-02-12T17:24:24.597Z,6.60
2023-02-12T17:26:52.929Z,6.60
2023-02-12T17:29:22.586Z,6.60
2023-02-12T17:31:49.824Z,6.52
2023-02-12T17:34:16.941Z,6.50
2023-02-12T17:36:43.600Z,6.50
2023-02-12T17:39:13.531Z,6.50
2023-02-12T17:41:40.889Z,6.40
2023-02-12T17:44:08.421Z,6.40
2023-02-12T17:46:35.199Z,6.40
2023-02-12T17:49:02.515Z,6.38
2023-02-12T17:51:29.174Z,6.30
2023-02-12T17:53:55.857Z,6.30
2023-02-12T17:56:25.719Z,6.30
2023-02-12T17:58:53.261Z,6.22
2023-02-12T18:01:22.779Z,6.20
2023-02-12T18:03:52.303Z,6.20
2023-02-12T18:06:26.117Z,6.10
2023-02-12T18:08:53.837Z,6.10
2023-02-12T18:11:20.884Z,6.00
2023-02-12T18:13:47.768Z,5.90
2023-02-12T18:16:15.059Z,5.90
2023-02-12T18:18:41.817Z,5.90
2023-02-12T18:21:11.928Z,5.90
2023-02-12T18:23:38.733Z,5.80
2023-02-12T18:26:08.471Z,5.80
2023-02-12T18:28:35.498Z,5.70
2023-02-12T18:31:03.013Z,5.70
2023-02-12T18:33:29.722Z,5.70
2023-02-12T18:36:05.143Z,5.60
2023-02-12T18:38:32.027Z,5.60
2023-02-12T18:41:00.427Z,5.60
2023-02-12T18:43:28.219Z,5.50
2023-02-12T18:45:55.312Z,5.50
2023-02-12T18:48:22.219Z,5.48
2023-02-12T18:50:51.767Z,5.40
2023-02-12T18:53:19.268Z,5.40
2023-02-12T18:55:46.666Z,5.30
2023-02-12T18:58:13.240Z,5.30
2023-02-12T19:00:40.093Z,5.30
2023-02-12T19:03:06.714Z,5.30
2023-02-12T19:05:33.316Z,5.22
2023-02-12T19:08:00.095Z,5.20
2023-02-12T19:10:26.709Z,5.20
2023-02-12T19:12:53.333Z,5.20
2023-02-12T19:15:19.875Z,5.10
2023-02-12T19:17:46.397Z,5.10
2023-02-12T19:20:15.758Z,5.10
2023-02-12T19:22:43.143Z,5.10
2023-02-12T19:25:10.277Z,5.00
2023-02-12T19:27:36.903Z,5.00
2023-02-12T19:30:05.249Z,5.00
2023-02-12T19:32:32.078Z,4.90
2023-02-12T19:34:58.649Z,4.90
2023-02-12T19:37:25.441Z,4.90
2023-02-12T19:39:52.086Z,4.80
2023-02-12T19:42:18.746Z,4.80
2023-02-12T19:44:46.723Z,4.80
2023-02-12T19:47:13.564Z,4.80
2023-02-12T19:49:41.358Z,4.80
2023-02-12T19:52:09.182Z,4.70
2023-02-12T19:54:36.289Z,4.70
2023-02-12T19:57:08.552Z,4.70
2023-02-12T19:59:36.241Z,4.60
2023-02-12T20:02:03.521Z,4.60
2023-02-12T20:04:31.002Z,4.52
2023-02-12T20:06:58.010Z,4.50
2023-02-12T20:09:25.464Z,4.40
2023-02-12T20:11:53.540Z,4.40
2023-02-12T20:14:22.983Z,4.40
2023-02-12T20:16:51.381Z,4.40
2023-02-12T20:19:27.534Z,4.40
2023-02-12T20:21:56.112Z,4.40
2023-02-12T20:24:25.421Z,4.40
2023-02-12T20:26:53.709Z,4.30
2023-02-12T20:29:20.577Z,4.30
2023-02-12T20:31:47.866Z,4.30
2023-02-12T20:34:18.400Z,4.30
2023-02-12T20:36:46.873Z,4.30
2023-02-12T20:39:17.531Z,4.30
2023-02-12T20:41:44.364Z,4.20
2023-02-12T20:44:16.035Z,4.14
2023-02-12T20:46:47.972Z,4.10
2023-02-12T20:49:18.235Z,4.00
2023-02-12T20:51:48.837Z,4.00
2023-02-12T20:54:15.565Z,4.00
2023-02-12T20:56:42.168Z,4.00
2023-02-12T20:59:08.778Z,4.00
2023-02-12T21:01:39.040Z,4.10
2023-02-12T21:04:09.730Z,4.08
2023-02-12T21:06:36.680Z,4.10
2023-02-12T21:09:03.471Z,4.10
2023-02-12T21:11:30.620Z,4.20
2023-02-12T21:14:18.444Z,4.20
2023-02-12T21:16:46.076Z,4.20
2023-02-12T21:19:16.312Z,4.20
2023-02-12T21:21:45.212Z,4.10
2023-02-12T21:24:21.485Z,4.10
2023-02-12T21:26:49.662Z,4.10
2023-02-12T21:29:16.411Z,4.10
2023-02-12T21:31:47.816Z,4.00
2023-02-12T21:34:18.300Z,4.00
2023-02-12T21:36:46.549Z,4.00
2023-02-12T21:39:27.028Z,3.90
2023-02-12T21:42:03.259Z,3.90
2023-02-12T21:44:32.205Z,3.90
2023-02-12T21:46:59.019Z,4.00
2023-02-12T21:49:27.761Z,4.00
2023-02-12T21:52:04.629Z,4.00
2023-02-12T21:54:31.615Z,4.00
2023-02-12T21:56:59.601Z,4.06
2023-02-12T21:59:30.681Z,4.02
2023-02-12T22:01:59.315Z,4.08
2023-02-12T22:04:26.863Z,4.10
2023-02-12T22:06:54.104Z,4.00
2023-02-12T22:09:23.122Z,4.00
2023-02-12T22:11:52.589Z,4.00
2023-02-12T22:14:21.695Z,3.90
2023-02-12T22:16:50.285Z,3.80
2023-02-12T22:19:17.141Z,3.80
2023-02-12T22:21:44.466Z,3.70
2023-02-12T22:24:15.992Z,3.70
2023-02-12T22:26:43.539Z,3.70
2023-02-12T22:29:13.209Z,3.70
2023-02-12T22:31:42.915Z,3.70
2023-02-12T22:34:18.815Z,3.70
2023-02-12T22:36:46.944Z,3.70
2023-02-12T22:39:14.838Z,3.70
2023-02-12T22:41:42.453Z,3.70
2023-02-12T22:44:11.937Z,3.70
2023-02-12T22:46:38.710Z,3.68
2023-02-12T22:49:05.474Z,3.60
2023-02-12T22:51:33.026Z,3.60
2023-02-12T22:54:00.549Z,3.52
2023-02-12T22:56:27.705Z,3.50
2023-02-12T22:58:58.377Z,3.50
2023-02-12T23:01:26.431Z,3.50
2023-02-12T23:03:53.437Z,3.46
2023-02-12T23:06:25.605Z,3.40
2023-02-12T23:09:00.171Z,3.40
2023-02-12T23:11:29.858Z,3.40
2023-02-12T23:13:58.516Z,3.40
2023-02-12T23:16:25.609Z,3.40
2023-02-12T23:19:00.576Z,3.30
2023-02-12T23:21:29.377Z,3.20
2023-02-12T23:23:56.963Z,3.20
2023-02-12T23:26:23.646Z,3.20
2023-02-12T23:28:50.566Z,3.26
2023-02-12T23:31:17.326Z,3.30
2023-02-12T23:33:44.195Z,3.20
2023-02-12T23:36:10.827Z,3.20
2023-02-12T23:38:37.599Z,3.22
2023-02-12T23:41:04.449Z,3.30
2023-02-12T23:43:32.750Z,3.30
2023-02-12T23:46:00.253Z,3.30
2023-02-12T23:48:27.158Z,3.32
2023-02-12T23:50:53.778Z,3.32
2023-02-12T23:53:20.429Z,3.40
2023-02-12T23:55:51.209Z,3.40
2023-02-12T23:58:18.016Z,3.40
